createdAt,value
2019-05-07T00:00:03.370Z,22.85
2019-05-07T00:02:43.397Z,17.07
2019-05-07T00:05:23.120Z,11.85
2019-05-07T00:08:03.236Z,13.48
2019-05-07T00:10:43.365Z,16.00
2019-05-07T00:13:23.905Z,16.95
2019-05-07T00:16:03.645Z,15.35
2019-05-07T00:18:43.434Z,16.17
2019-05-07T00:21:24.273Z,14.23
2019-05-07T00:24:04.730Z,17.27
2019-05-07T00:26:45.297Z,13.90
2019-05-07T00:29:25.422Z,16.23
2019-05-07T00:32:05.474Z,15.75
2019-05-07T00:34:49.785Z,18.37
2019-05-07T00:41:04.549Z,17.60
2019-05-07T00:43:45.952Z,17.55
2019-05-07T00:46:29.023Z,16.12
2019-05-07T00:49:09.771Z,13.62
2019-05-07T00:51:51.845Z,15.58
2019-05-07T00:54:32.537Z,14.38
2019-05-07T00:57:12.577Z,11.78
2019-05-07T00:59:52.921Z,11.83
2019-05-07T01:02:32.722Z,11.55
2019-05-07T01:05:12.924Z,14.40
2019-05-07T01:07:53.051Z,11.78
2019-05-07T01:10:33.091Z,11.65
2019-05-07T01:13:12.991Z,12.90
2019-05-07T01:15:53.438Z,15.43
2019-05-07T01:18:33.116Z,17.35
2019-05-07T01:21:14.493Z,14.18
2019-05-07T01:23:54.621Z,13.32
2019-05-07T01:26:35.961Z,11.38
2019-05-07T01:29:16.018Z,11.05
2019-05-07T01:38:16.373Z,10.25
2019-05-07T01:40:56.371Z,12.95
2019-05-07T01:43:36.505Z,9.80
2019-05-07T01:46:16.559Z,12.05
2019-05-07T01:48:57.572Z,9.85
2019-05-07T01:51:38.571Z,11.38
2019-05-07T01:54:18.593Z,11.43
2019-05-07T01:56:58.567Z,9.80
2019-05-07T01:59:38.849Z,12.30
2019-05-07T02:02:24.726Z,12.20
2019-05-07T02:11:37.837Z,12.82
2019-05-07T02:14:17.678Z,12.20
2019-05-07T02:16:57.985Z,12.43
2019-05-07T02:19:38.217Z,13.13
2019-05-07T02:22:17.758Z,12.35
2019-05-07T02:24:58.141Z,11.73
2019-05-07T02:27:38.152Z,9.15
2019-05-07T02:30:18.141Z,12.40
2019-05-07T02:32:58.355Z,11.03
2019-05-07T02:35:38.466Z,12.30
2019-05-07T02:41:28.583Z,8.78
2019-05-07T02:44:08.735Z,10.50
2019-05-07T02:46:53.903Z,9.68
2019-05-07T02:53:08.629Z,12.28
2019-05-07T02:55:52.849Z,9.68
2019-05-07T02:58:33.376Z,12.53
2019-05-07T03:01:14.141Z,10.55
2019-05-07T03:03:53.649Z,11.93
2019-05-07T03:06:34.297Z,11.75
2019-05-07T03:09:14.769Z,10.80
2019-05-07T03:11:55.361Z,12.20
2019-05-07T03:14:35.362Z,11.05
2019-05-07T03:17:15.626Z,13.45
2019-05-07T03:19:57.401Z,13.25
2019-05-07T03:22:39.403Z,11.43
2019-05-07T03:25:26.722Z,12.28
2019-05-07T03:28:06.993Z,15.65
2019-05-07T03:30:56.655Z,12.05
2019-05-07T03:36:48.007Z,11.20
2019-05-07T03:39:27.630Z,12.58
2019-05-07T03:42:08.309Z,9.78
2019-05-07T03:45:07.430Z,13.40
2019-05-07T03:47:54.148Z,10.95
2019-05-07T03:50:34.062Z,9.05
2019-05-07T03:53:14.502Z,8.70
2019-05-07T03:55:55.197Z,14.53
2019-05-07T03:58:35.130Z,15.85
2019-05-07T04:01:15.286Z,10.93
2019-05-07T04:03:55.738Z,13.28
2019-05-07T04:06:35.921Z,12.95
2019-05-07T04:09:15.974Z,11.90
2019-05-07T04:11:55.623Z,15.80
2019-05-07T04:14:36.296Z,12.82
2019-05-07T04:17:22.304Z,14.20
2019-05-07T04:19:58.146Z,13.00
2019-05-07T04:22:38.511Z,13.20
2019-05-07T04:25:37.799Z,10.65
2019-05-07T04:28:38.036Z,10.53
2019-05-07T04:31:18.579Z,12.13
2019-05-07T04:34:03.641Z,13.05
2019-05-07T04:36:46.643Z,17.20
2019-05-07T04:39:26.642Z,13.78
2019-05-07T04:42:07.221Z,15.45
2019-05-07T04:44:48.103Z,19.30
2019-05-07T04:47:38.497Z,35.20
2019-05-07T04:50:13.981Z,29.63
2019-05-07T04:52:54.501Z,19.10
2019-05-07T04:55:34.775Z,52.58
2019-05-07T04:58:14.359Z,78.55
2019-05-07T05:00:54.875Z,41.80
2019-05-07T05:03:38.599Z,23.65
2019-05-07T05:06:16.835Z,17.50
2019-05-07T05:08:56.849Z,27.17
2019-05-07T05:11:37.574Z,29.20
2019-05-07T05:14:07.859Z,24.77
2019-05-07T05:17:02.066Z,28.00
2019-05-07T05:19:48.847Z,24.47
2019-05-07T05:22:53.203Z,23.07
2019-05-07T05:25:53.471Z,17.37
2019-05-07T05:28:34.151Z,19.17
2019-05-07T05:31:14.502Z,16.23
2019-05-07T05:33:54.992Z,16.47
2019-05-07T05:36:35.042Z,21.40
2019-05-07T05:39:14.799Z,17.70
2019-05-07T05:42:02.504Z,18.80
2019-05-07T05:45:03.719Z,17.37
2019-05-07T05:47:45.017Z,15.47
2019-05-07T05:50:27.145Z,13.17
2019-05-07T05:59:51.188Z,14.00
2019-05-07T06:06:23.930Z,16.03
2019-05-07T06:19:19.965Z,12.70
2019-05-07T06:25:24.281Z,10.70
2019-05-07T06:28:02.986Z,17.90
2019-05-07T06:30:42.999Z,12.97
2019-05-07T06:33:23.381Z,12.37
2019-05-07T06:36:03.215Z,12.17
2019-05-07T06:38:49.669Z,16.90
2019-05-07T06:41:49.254Z,15.23
2019-05-07T06:44:29.260Z,11.33
2019-05-07T06:47:09.037Z,15.10
2019-05-07T06:49:49.486Z,14.50
2019-05-07T06:52:28.994Z,12.67
2019-05-07T06:55:09.362Z,15.90
2019-05-07T06:57:49.726Z,15.47
2019-05-07T07:00:48.870Z,13.03
2019-05-07T07:07:23.085Z,15.00
2019-05-07T07:13:11.860Z,12.07
2019-05-07T07:15:52.169Z,15.30
2019-05-07T07:18:32.671Z,12.37
2019-05-07T07:21:12.475Z,12.13
2019-05-07T07:23:53.092Z,16.23
2019-05-07T07:26:35.383Z,16.40
2019-05-07T07:29:16.989Z,12.43
2019-05-07T07:31:59.681Z,13.27
2019-05-07T07:34:44.559Z,13.90
2019-05-07T07:41:05.348Z,17.87
2019-05-07T07:44:05.253Z,15.57
2019-05-07T07:46:45.308Z,17.53
2019-05-07T07:49:26.215Z,17.50
2019-05-07T07:52:05.819Z,18.37
2019-05-07T07:54:45.846Z,16.60
2019-05-07T08:01:18.209Z,21.67
2019-05-07T08:03:58.259Z,17.40
2019-05-07T08:06:41.814Z,19.00
2019-05-07T08:09:23.938Z,17.93
2019-05-07T08:12:03.354Z,23.53
2019-05-07T08:14:43.879Z,20.77
2019-05-07T08:17:23.467Z,18.87
2019-05-07T08:20:03.749Z,20.53
2019-05-07T08:22:44.534Z,15.93
2019-05-07T08:25:44.320Z,19.23
2019-05-07T08:28:24.403Z,16.37
2019-05-07T08:31:23.833Z,23.63
2019-05-07T08:37:35.198Z,20.93
2019-05-07T08:40:15.090Z,20.47
2019-05-07T08:42:56.298Z,22.37
2019-05-07T08:45:55.780Z,18.83
2019-05-07T08:48:42.455Z,23.93
2019-05-07T08:51:29.899Z,24.17
2019-05-07T08:54:12.147Z,19.43
2019-05-07T08:56:52.745Z,23.20
2019-05-07T08:59:33.911Z,20.57
2019-05-07T09:02:14.481Z,19.20
2019-05-07T09:04:56.301Z,19.27
2019-05-07T09:07:36.353Z,16.20
2019-05-07T09:10:16.026Z,21.23
2019-05-07T09:12:56.321Z,22.00
2019-05-07T09:15:36.158Z,17.47
2019-05-07T09:18:16.406Z,16.97
2019-05-07T09:20:56.629Z,21.13
2019-05-07T09:23:36.710Z,21.50
2019-05-07T09:26:19.234Z,18.97
2019-05-07T09:29:06.326Z,17.47
2019-05-07T09:32:06.125Z,17.83
2019-05-07T09:34:46.606Z,31.63
2019-05-07T09:37:27.826Z,19.20
2019-05-07T09:40:08.235Z,16.03
2019-05-07T09:42:48.199Z,19.00
2019-05-07T09:45:28.218Z,14.13
2019-05-07T09:48:08.723Z,26.10
2019-05-07T09:50:48.785Z,19.20
2019-05-07T09:53:28.654Z,17.40
2019-05-07T09:56:08.954Z,13.97
2019-05-07T09:58:49.055Z,18.90
2019-05-07T10:01:28.894Z,15.63
2019-05-07T10:04:08.775Z,18.67
2019-05-07T10:06:48.850Z,15.83
2019-05-07T10:09:29.066Z,20.83
2019-05-07T10:15:41.753Z,19.73
2019-05-07T10:18:22.848Z,11.53
2019-05-07T10:21:03.547Z,13.37
2019-05-07T10:23:43.894Z,16.00
2019-05-07T10:26:24.045Z,13.83
2019-05-07T10:29:03.803Z,16.53
2019-05-07T10:31:44.381Z,15.10
2019-05-07T10:34:23.842Z,16.23
2019-05-07T10:37:04.017Z,15.83
2019-05-07T10:39:44.169Z,16.17
2019-05-07T10:42:23.879Z,14.10
2019-05-07T10:45:23.681Z,14.10
2019-05-07T10:48:23.973Z,12.53
2019-05-07T10:51:04.914Z,11.83
2019-05-07T10:53:44.639Z,14.30
2019-05-07T10:56:25.085Z,12.80
2019-05-07T10:59:05.003Z,16.60
2019-05-07T11:01:51.985Z,10.60
2019-05-07T11:04:40.229Z,15.20
2019-05-07T11:07:13.975Z,13.50
2019-05-07T11:09:54.459Z,15.23
2019-05-07T11:12:34.471Z,16.50
2019-05-07T11:15:14.578Z,11.47
2019-05-07T11:21:14.346Z,10.30
2019-05-07T11:23:54.033Z,18.53
2019-05-07T11:26:34.461Z,16.53
2019-05-07T11:29:14.933Z,14.93
2019-05-07T11:31:55.276Z,8.87
2019-05-07T11:34:39.533Z,15.53
2019-05-07T11:37:19.494Z,16.33
2019-05-07T11:40:03.006Z,11.40
2019-05-07T11:43:04.979Z,16.40
2019-05-07T11:46:04.282Z,14.10
2019-05-07T11:48:51.313Z,11.20
2019-05-07T11:54:49.935Z,13.50
2019-05-07T11:57:30.378Z,14.90
2019-05-07T12:03:09.104Z,13.70
2019-05-07T12:05:48.813Z,14.80
2019-05-07T12:08:40.936Z,12.43
2019-05-07T12:11:11.914Z,13.47
2019-05-07T12:13:52.523Z,16.93
2019-05-07T12:16:32.772Z,16.60
2019-05-07T12:19:16.327Z,14.57
2019-05-07T12:21:55.333Z,11.67
2019-05-07T12:24:35.470Z,13.30
2019-05-07T12:27:15.646Z,12.67
2019-05-07T12:29:55.866Z,11.67
2019-05-07T12:35:52.497Z,11.13
2019-05-07T12:38:33.402Z,11.00
2019-05-07T12:41:34.167Z,10.53
2019-05-07T12:44:14.713Z,10.00
2019-05-07T12:46:54.943Z,11.93
2019-05-07T12:49:35.090Z,13.50
2019-05-07T12:52:20.088Z,11.20
2019-05-07T12:55:20.131Z,10.10
2019-05-07T12:57:47.618Z,15.80
2019-05-07T13:00:54.178Z,9.07
2019-05-07T13:03:40.050Z,8.50
2019-05-07T13:06:21.956Z,10.60
2019-05-07T13:09:02.040Z,9.30
2019-05-07T13:11:44.506Z,11.23
2019-05-07T13:14:24.561Z,9.57
2019-05-07T13:17:04.791Z,15.10
2019-05-07T13:19:44.757Z,12.43
2019-05-07T13:22:24.810Z,11.30
2019-05-07T13:25:04.775Z,9.23
2019-05-07T13:27:45.361Z,12.53
2019-05-07T13:30:25.505Z,13.80
2019-05-07T13:33:05.358Z,10.17
2019-05-07T13:35:45.317Z,10.70
2019-05-07T13:38:45.058Z,10.20
2019-05-07T13:41:45.321Z,10.03
2019-05-07T13:44:31.896Z,9.80
2019-05-07T13:47:38.513Z,14.80
2019-05-07T13:50:18.566Z,12.17
2019-05-07T13:52:58.974Z,9.93
2019-05-07T13:55:39.497Z,9.17
2019-05-07T13:58:22.836Z,11.33
2019-05-07T14:01:24.944Z,7.00
2019-05-07T14:04:05.499Z,9.80
2019-05-07T14:06:45.198Z,9.30
2019-05-07T14:09:25.589Z,8.63
2019-05-07T14:12:05.558Z,12.40
2019-05-07T14:14:45.306Z,14.23
2019-05-07T14:17:25.172Z,6.57
2019-05-07T14:20:05.334Z,9.60
2019-05-07T14:22:45.825Z,8.13
2019-05-07T14:25:25.938Z,7.70
2019-05-07T14:28:08.690Z,9.83
2019-05-07T14:30:48.969Z,11.63
2019-05-07T14:37:09.815Z,11.67
2019-05-07T14:39:51.830Z,7.83
2019-05-07T14:42:38.411Z,8.60
2019-05-07T14:45:18.651Z,8.10
2019-05-07T14:47:58.786Z,8.13
2019-05-07T14:50:38.930Z,9.27
2019-05-07T14:53:18.883Z,11.63
2019-05-07T14:55:59.151Z,9.23
2019-05-07T14:58:39.877Z,7.77
2019-05-07T15:01:19.811Z,8.73
2019-05-07T15:04:02.154Z,9.63
2019-05-07T15:06:41.771Z,7.73
2019-05-07T15:09:22.440Z,13.83
2019-05-07T15:12:02.430Z,9.80
2019-05-07T15:14:42.322Z,10.83
2019-05-07T15:20:44.785Z,7.97
2019-05-07T15:23:29.103Z,10.17
2019-05-07T15:26:09.366Z,9.83
2019-05-07T15:28:54.413Z,11.67
2019-05-07T15:31:54.307Z,10.43
2019-05-07T15:34:34.839Z,11.13
2019-05-07T15:37:16.191Z,8.90
2019-05-07T15:39:56.002Z,7.70
2019-05-07T15:42:35.702Z,10.77
2019-05-07T15:45:16.417Z,10.53
2019-05-07T15:47:57.609Z,8.23
2019-05-07T15:50:37.549Z,8.30
2019-05-07T15:56:24.262Z,8.70
2019-05-07T15:59:04.782Z,8.67
2019-05-07T16:01:44.699Z,11.10
2019-05-07T16:04:26.017Z,7.63
2019-05-07T16:07:08.168Z,7.40
2019-05-07T16:09:48.549Z,7.20
2019-05-07T16:15:31.982Z,8.30
2019-05-07T16:18:23.828Z,9.77
2019-05-07T16:21:05.051Z,11.67
2019-05-07T16:23:34.849Z,11.03
2019-05-07T16:26:22.067Z,10.87
2019-05-07T16:29:04.647Z,8.90
2019-05-07T16:31:44.733Z,8.60
2019-05-07T16:34:24.853Z,12.90
2019-05-07T16:37:07.448Z,9.53
2019-05-07T16:39:47.342Z,13.20
2019-05-07T16:42:27.328Z,8.70
2019-05-07T16:45:07.306Z,10.67
2019-05-07T16:47:47.293Z,9.10
2019-05-07T16:50:56.019Z,11.73
2019-05-07T16:53:43.304Z,7.53
2019-05-07T16:56:23.340Z,6.70
2019-05-07T16:59:07.681Z,9.13
2019-05-07T17:01:49.262Z,9.90
2019-05-07T17:04:16.389Z,9.57
2019-05-07T17:10:04.497Z,8.20
2019-05-07T17:12:45.765Z,8.73
2019-05-07T17:15:26.109Z,6.70
2019-05-07T17:18:06.203Z,9.53
2019-05-07T17:20:46.656Z,11.50
2019-05-07T17:23:26.358Z,11.60
2019-05-07T17:26:06.645Z,9.80
2019-05-07T17:28:47.549Z,12.23
2019-05-07T17:31:28.354Z,7.70
2019-05-07T17:34:09.012Z,9.23
2019-05-07T17:36:49.587Z,9.97
2019-05-07T17:39:29.508Z,10.80
2019-05-07T17:42:11.750Z,7.00
2019-05-07T17:44:52.068Z,10.00
2019-05-07T17:47:32.568Z,9.77
2019-05-07T17:50:14.700Z,9.63
2019-05-07T17:52:54.810Z,5.00
2019-05-07T17:55:35.160Z,7.87
2019-05-07T17:58:16.186Z,13.17
2019-05-07T18:00:57.669Z,7.80
2019-05-07T18:03:45.242Z,10.30
2019-05-07T18:06:13.045Z,8.03
2019-05-07T18:08:53.239Z,7.40
2019-05-07T18:11:33.293Z,6.53
2019-05-07T18:14:13.566Z,11.23
2019-05-07T18:17:15.989Z,6.50
2019-05-07T18:19:56.775Z,8.40
2019-05-07T18:22:37.237Z,13.03
2019-05-07T18:25:16.949Z,12.83
2019-05-07T18:27:56.600Z,10.90
2019-05-07T18:30:37.547Z,10.43
2019-05-07T18:36:34.895Z,12.37
2019-05-07T18:39:14.688Z,9.60
2019-05-07T18:41:55.114Z,10.50
2019-05-07T18:44:35.294Z,11.40
2019-05-07T18:47:16.187Z,10.13
2019-05-07T18:49:55.862Z,12.27
2019-05-07T18:52:36.250Z,12.10
2019-05-07T18:55:15.869Z,7.80
2019-05-07T18:57:56.390Z,9.73
2019-05-07T19:00:42.301Z,9.87
2019-05-07T19:03:25.238Z,13.93
2019-05-07T19:06:04.202Z,11.13
2019-05-07T19:08:44.703Z,11.70
2019-05-07T19:11:24.619Z,10.87
2019-05-07T19:14:04.630Z,12.07
2019-05-07T19:16:45.098Z,12.90
2019-05-07T19:19:24.922Z,12.43
2019-05-07T19:22:05.560Z,15.20
2019-05-07T19:24:48.114Z,16.17
2019-05-07T19:27:29.089Z,20.63
2019-05-07T19:30:12.534Z,19.67
2019-05-07T19:32:53.340Z,18.63
2019-05-07T19:35:33.950Z,17.03
2019-05-07T19:38:14.127Z,21.00
2019-05-07T19:40:54.532Z,13.70
2019-05-07T19:43:36.337Z,17.33
2019-05-07T19:46:16.469Z,14.90
2019-05-07T19:48:56.400Z,14.40
2019-05-07T19:51:24.735Z,16.30
2019-05-07T19:53:52.671Z,14.47
2019-05-07T19:56:54.989Z,14.07
2019-05-07T19:59:35.841Z,15.70
2019-05-07T20:02:18.909Z,19.95
2019-05-07T20:04:59.034Z,18.23
2019-05-07T20:07:39.450Z,16.83
2019-05-07T20:13:27.570Z,27.37
2019-05-07T20:16:14.669Z,21.23
2019-05-07T20:18:55.128Z,22.30
2019-05-07T20:21:35.625Z,19.90
2019-05-07T20:24:16.035Z,14.98
2019-05-07T20:26:56.403Z,16.05
2019-05-07T20:29:37.154Z,18.70
2019-05-07T20:32:17.102Z,19.10
2019-05-07T20:34:56.653Z,16.52
2019-05-07T20:37:36.806Z,22.85
2019-05-07T20:42:58.582Z,23.15
2019-05-07T20:45:38.890Z,14.68
2019-05-07T20:48:18.933Z,22.58
2019-05-07T20:50:59.115Z,21.73
2019-05-07T20:53:59.137Z,17.73
2019-05-07T20:56:42.232Z,20.25
2019-05-07T20:59:22.091Z,20.30
2019-05-07T21:02:02.507Z,21.62
2019-05-07T21:04:43.062Z,16.42
2019-05-07T21:07:22.779Z,16.75
2019-05-07T21:09:52.846Z,17.30
2019-05-07T21:13:00.077Z,20.40
2019-05-07T21:15:41.893Z,18.37
2019-05-07T21:18:23.543Z,19.45
2019-05-07T21:20:52.728Z,17.98
2019-05-07T21:23:46.250Z,17.35
2019-05-07T21:26:26.243Z,17.32
2019-05-07T21:32:08.526Z,13.78
2019-05-07T21:34:35.629Z,16.48
2019-05-07T21:37:22.939Z,15.35
2019-05-07T21:40:13.049Z,14.43
2019-05-07T21:42:53.621Z,17.77
2019-05-07T21:45:33.921Z,13.50
2019-05-07T21:48:13.885Z,16.50
2019-05-07T21:50:55.292Z,15.28
2019-05-07T21:57:26.187Z,20.15
2019-05-07T22:06:12.861Z,19.73
2019-05-07T22:15:04.513Z,16.05
2019-05-07T22:17:54.545Z,18.62
2019-05-07T22:20:35.110Z,16.45
2019-05-07T22:23:15.314Z,16.80
2019-05-07T22:25:55.941Z,15.45
2019-05-07T22:28:38.346Z,15.58
2019-05-07T22:31:37.775Z,20.50
2019-05-07T22:34:39.865Z,16.02
2019-05-07T22:37:22.096Z,16.10
2019-05-07T22:40:22.652Z,15.05
2019-05-07T22:43:04.365Z,17.50
2019-05-07T22:45:44.413Z,13.85
2019-05-07T22:48:24.746Z,15.58
2019-05-07T22:51:05.183Z,18.50
2019-05-07T22:53:44.741Z,18.02
2019-05-07T22:56:44.931Z,17.65
2019-05-07T22:59:24.910Z,17.00
2019-05-07T23:02:05.241Z,16.27
2019-05-07T23:04:47.182Z,15.68
2019-05-07T23:07:27.202Z,18.77
2019-05-07T23:10:07.354Z,15.30
2019-05-07T23:12:47.524Z,15.98
2019-05-07T23:15:27.765Z,16.97
2019-05-07T23:18:07.860Z,18.98
2019-05-07T23:20:47.334Z,20.35
2019-05-07T23:23:28.002Z,23.98
2019-05-07T23:26:08.590Z,22.32
2019-05-07T23:28:35.977Z,24.37
2019-05-07T23:34:12.551Z,23.02
2019-05-07T23:36:53.563Z,24.32
2019-05-07T23:39:36.530Z,21.12
2019-05-07T23:42:20.319Z,20.15
2019-05-07T23:45:01.976Z,21.25
2019-05-07T23:47:44.698Z,21.10
2019-05-07T23:50:32.403Z,18.62
2019-05-07T23:53:19.921Z,27.60
2019-05-07T23:56:02.651Z,18.42
2019-05-07T23:58:42.826Z,17.42
